createdAt,value
2019-04-27T00:00:00.285Z,99.00
2019-04-27T00:02:38.084Z,99.20
2019-04-27T00:05:18.873Z,99.70
2019-04-27T00:08:06.160Z,99.50
2019-04-27T00:10:55.769Z,99.70
2019-04-27T00:13:25.294Z,99.20
2019-04-27T00:16:09.967Z,99.70
2019-04-27T00:19:15.768Z,99.20
2019-04-27T00:22:00.372Z,99.40
2019-04-27T00:24:30.057Z,99.50
2019-04-27T00:26:59.833Z,99.00
2019-04-27T00:29:30.089Z,99.10
2019-04-27T00:31:59.479Z,98.80
2019-04-27T00:34:29.033Z,98.50
2019-04-27T00:37:10.693Z,98.70
2019-04-27T00:39:59.332Z,98.70
2019-04-27T00:42:29.471Z,98.40
2019-04-27T00:44:58.900Z,97.20
2019-04-27T00:47:28.594Z,97.10
2019-04-27T00:49:57.976Z,97.10
2019-04-27T00:52:27.524Z,97.30
2019-04-27T00:54:57.181Z,97.80
2019-04-27T00:57:55.126Z,97.80
2019-04-27T01:00:33.803Z,98.00
2019-04-27T01:03:13.954Z,98.20
2019-04-27T01:05:43.738Z,98.10
2019-04-27T01:08:13.912Z,98.30
2019-04-27T01:10:43.609Z,98.40
2019-04-27T01:13:13.314Z,98.80
2019-04-27T01:15:43.126Z,98.90
2019-04-27T01:18:15.338Z,99.50
2019-04-27T01:20:43.569Z,99.50
2019-04-27T01:23:13.005Z,99.50
2019-04-27T01:26:01.487Z,99.40
2019-04-27T01:28:35.797Z,99.50
2019-04-27T01:31:09.172Z,99.60
2019-04-27T01:33:39.054Z,99.80
2019-04-27T01:36:08.933Z,99.90
2019-04-27T01:38:40.988Z,99.90
2019-04-27T01:41:10.879Z,99.90
2019-04-27T01:43:40.308Z,99.90
2019-04-27T01:46:09.984Z,99.90
2019-04-27T01:48:39.406Z,99.90
2019-04-27T01:51:09.230Z,99.90
2019-04-27T01:53:39.093Z,99.90
2019-04-27T01:56:09.218Z,99.90
2019-04-27T01:58:39.277Z,99.90
2019-04-27T02:01:28.936Z,99.90
2019-04-27T02:04:11.157Z,99.90
2019-04-27T02:06:40.591Z,99.90
2019-04-27T02:09:14.375Z,99.90
2019-04-27T02:11:43.803Z,99.90
2019-04-27T02:14:14.186Z,99.90
2019-04-27T02:16:43.582Z,99.90
2019-04-27T02:19:13.026Z,99.90
2019-04-27T02:21:42.786Z,99.90
2019-04-27T02:24:12.222Z,99.90
2019-04-27T02:26:41.601Z,99.90
2019-04-27T02:29:19.677Z,99.90
2019-04-27T02:32:10.873Z,99.90
2019-04-27T02:34:53.817Z,99.90
2019-04-27T02:37:23.219Z,99.90
2019-04-27T02:39:52.636Z,99.90
2019-04-27T02:42:23.851Z,99.90
2019-04-27T02:44:53.717Z,99.90
2019-04-27T02:47:23.110Z,99.90
2019-04-27T02:49:52.545Z,99.90
2019-04-27T02:52:33.938Z,99.90
2019-04-27T02:55:04.041Z,99.90
2019-04-27T02:57:33.436Z,99.90
2019-04-27T03:00:03.143Z,99.90
2019-04-27T03:02:45.593Z,99.90
2019-04-27T03:05:24.946Z,99.90
2019-04-27T03:07:54.511Z,99.90
2019-04-27T03:10:25.764Z,99.90
2019-04-27T03:13:03.095Z,99.90
2019-04-27T03:15:42.085Z,99.90
2019-04-27T03:18:19.552Z,99.90
2019-04-27T03:20:53.593Z,99.90
2019-04-27T03:23:23.069Z,99.90
2019-04-27T03:26:14.450Z,99.90
2019-04-27T03:28:44.445Z,99.90
2019-04-27T03:31:14.407Z,99.90
2019-04-27T03:33:44.072Z,99.90
2019-04-27T03:36:13.562Z,99.90
2019-04-27T03:38:43.174Z,99.90
2019-04-27T03:41:12.683Z,99.90
2019-04-27T03:43:42.079Z,99.90
2019-04-27T03:46:11.813Z,99.90
2019-04-27T03:48:41.186Z,99.90
2019-04-27T03:51:29.933Z,99.90
2019-04-27T03:54:19.403Z,99.90
2019-04-27T03:56:52.389Z,99.90
2019-04-27T03:59:32.582Z,99.90
2019-04-27T04:02:02.557Z,99.90
2019-04-27T04:04:32.733Z,99.90
2019-04-27T04:07:21.338Z,99.90
2019-04-27T04:09:50.737Z,99.90
2019-04-27T04:12:26.069Z,99.90
2019-04-27T04:14:55.458Z,99.90
2019-04-27T04:17:25.079Z,99.90
2019-04-27T04:19:58.510Z,99.90
2019-04-27T04:22:25.815Z,99.90
2019-04-27T04:24:55.199Z,99.90
2019-04-27T04:27:24.907Z,99.90
2019-04-27T04:29:54.313Z,99.90
2019-04-27T04:32:23.782Z,99.90
2019-04-27T04:34:53.157Z,99.90
2019-04-27T04:37:22.831Z,99.90
2019-04-27T04:39:53.469Z,99.90
2019-04-27T04:42:33.068Z,99.90
2019-04-27T04:45:20.152Z,99.90
2019-04-27T04:48:00.972Z,99.80
2019-04-27T04:50:30.648Z,98.60
2019-04-27T04:53:00.130Z,95.60
2019-04-27T04:55:30.649Z,94.80
2019-04-27T04:58:00.531Z,94.20
2019-04-27T05:00:30.103Z,92.40
2019-04-27T05:02:59.668Z,92.50
2019-04-27T05:05:29.387Z,91.70
2019-04-27T05:08:00.690Z,90.00
2019-04-27T05:10:31.208Z,86.60
2019-04-27T05:13:01.826Z,82.60
2019-04-27T05:15:31.205Z,83.60
2019-04-27T05:18:00.629Z,81.80
2019-04-27T05:20:39.691Z,81.90
2019-04-27T05:23:09.742Z,80.90
2019-04-27T05:25:39.226Z,82.50
2019-04-27T05:28:09.758Z,83.10
2019-04-27T05:30:39.715Z,80.30
2019-04-27T05:33:09.516Z,81.00
2019-04-27T05:35:41.059Z,79.20
2019-04-27T05:38:13.068Z,81.10
2019-04-27T05:40:41.705Z,81.10
2019-04-27T05:43:12.694Z,82.40
2019-04-27T05:46:40.299Z,82.50
2019-04-27T05:49:14.451Z,82.90
2019-04-27T05:51:43.846Z,81.90
2019-04-27T05:54:13.280Z,80.50
2019-04-27T05:56:42.709Z,78.40
2019-04-27T05:59:14.621Z,76.20
2019-04-27T06:01:43.245Z,73.00
2019-04-27T06:04:13.007Z,71.10
2019-04-27T06:06:42.543Z,69.00
2019-04-27T06:09:11.954Z,68.80
2019-04-27T06:11:41.901Z,67.70
2019-04-27T06:14:11.608Z,68.60
2019-04-27T06:16:41.027Z,70.90
2019-04-27T06:19:10.441Z,73.30
2019-04-27T06:21:40.199Z,73.60
2019-04-27T06:24:09.637Z,73.60
2019-04-27T06:26:39.941Z,73.00
2019-04-27T06:29:10.007Z,72.50
2019-04-27T06:31:39.795Z,72.10
2019-04-27T06:34:09.937Z,71.80
2019-04-27T06:36:39.385Z,72.10
2019-04-27T06:39:10.043Z,72.20
2019-04-27T06:41:39.964Z,72.50
2019-04-27T06:44:11.324Z,72.60
2019-04-27T06:46:41.161Z,72.30
2019-04-27T06:49:11.036Z,72.10
2019-04-27T06:51:40.780Z,71.50
2019-04-27T06:54:10.222Z,71.70
2019-04-27T06:56:39.669Z,70.80
2019-04-27T06:59:09.057Z,70.60
2019-04-27T07:01:39.200Z,69.80
2019-04-27T07:04:10.836Z,70.10
2019-04-27T07:06:52.914Z,69.30
2019-04-27T07:09:12.260Z,68.70
2019-04-27T07:11:41.692Z,66.80
2019-04-27T07:14:11.619Z,66.70
2019-04-27T07:16:41.546Z,66.00
2019-04-27T07:19:10.969Z,65.20
2019-04-27T07:21:40.925Z,64.20
2019-04-27T07:24:10.353Z,63.60
2019-04-27T07:26:39.938Z,62.40
2019-04-27T07:29:09.693Z,62.50
2019-04-27T07:31:40.122Z,61.50
2019-04-27T07:34:09.699Z,61.40
2019-04-27T07:36:39.472Z,62.70
2019-04-27T07:39:11.599Z,62.40
2019-04-27T07:41:41.019Z,62.10
2019-04-27T07:44:22.749Z,62.20
2019-04-27T07:47:09.882Z,62.90
2019-04-27T07:49:39.388Z,64.10
2019-04-27T07:52:09.004Z,63.40
2019-04-27T07:54:40.731Z,63.50
2019-04-27T07:57:09.917Z,63.50
2019-04-27T07:59:41.796Z,63.60
2019-04-27T08:02:11.095Z,63.40
2019-04-27T08:04:40.608Z,64.00
2019-04-27T08:07:10.121Z,62.30
2019-04-27T08:09:39.915Z,62.00
2019-04-27T08:12:10.878Z,61.70
2019-04-27T08:14:40.651Z,61.50
2019-04-27T08:17:10.360Z,60.00
2019-04-27T08:19:40.053Z,60.40
2019-04-27T08:22:09.838Z,58.70
2019-04-27T08:24:39.695Z,58.60
2019-04-27T08:27:23.766Z,58.50
2019-04-27T08:30:19.460Z,57.30
2019-04-27T08:32:49.920Z,55.40
2019-04-27T08:35:19.557Z,54.10
2019-04-27T08:37:49.498Z,55.10
2019-04-27T08:40:19.383Z,54.50
2019-04-27T08:42:51.175Z,54.70
2019-04-27T08:45:20.525Z,54.60
2019-04-27T08:47:50.213Z,55.50
2019-04-27T08:50:19.643Z,55.70
2019-04-27T08:52:50.216Z,56.90
2019-04-27T08:55:19.795Z,58.70
2019-04-27T08:57:49.265Z,59.10
2019-04-27T09:00:19.776Z,59.80
2019-04-27T09:02:50.266Z,59.00
2019-04-27T09:05:25.707Z,60.20
2019-04-27T09:08:24.677Z,59.90
2019-04-27T09:11:13.066Z,59.80
2019-04-27T09:14:13.775Z,59.20
2019-04-27T09:16:59.670Z,59.70
2019-04-27T09:19:29.187Z,61.40
2019-04-27T09:22:16.011Z,63.90
2019-04-27T09:24:39.776Z,64.20
2019-04-27T09:27:09.702Z,66.20
2019-04-27T09:29:39.676Z,68.00
2019-04-27T09:32:09.145Z,67.20
2019-04-27T09:34:38.543Z,66.90
2019-04-27T09:37:08.033Z,66.50
2019-04-27T09:39:37.754Z,68.40
2019-04-27T09:42:07.190Z,71.50
2019-04-27T09:44:37.063Z,71.10
2019-04-27T09:47:06.625Z,75.20
2019-04-27T09:49:36.659Z,75.10
2019-04-27T09:52:07.074Z,73.70
2019-04-27T09:54:36.693Z,74.80
2019-04-27T09:57:06.982Z,74.80
2019-04-27T09:59:39.385Z,75.50
2019-04-27T10:02:08.727Z,75.20
2019-04-27T10:04:38.164Z,72.60
2019-04-27T10:07:07.699Z,73.20
2019-04-27T10:09:37.094Z,73.10
2019-04-27T10:12:07.450Z,73.90
2019-04-27T10:14:37.057Z,72.50
2019-04-27T10:17:06.577Z,70.40
2019-04-27T10:19:36.663Z,73.60
2019-04-27T10:22:06.695Z,74.00
2019-04-27T10:24:36.081Z,74.90
2019-04-27T10:27:07.853Z,77.20
2019-04-27T10:29:37.144Z,79.80
2019-04-27T10:32:06.560Z,79.70
2019-04-27T10:34:35.992Z,78.00
2019-04-27T10:37:06.061Z,77.30
2019-04-27T10:39:36.064Z,77.30
2019-04-27T10:42:06.813Z,74.80
2019-04-27T10:44:36.343Z,74.70
2019-04-27T10:47:06.010Z,74.80
2019-04-27T10:49:35.413Z,74.30
2019-04-27T10:52:05.919Z,73.10
2019-04-27T10:54:35.358Z,71.80
2019-04-27T10:57:06.079Z,70.90
2019-04-27T10:59:36.040Z,71.70
2019-04-27T11:02:05.646Z,71.20
2019-04-27T11:04:58.901Z,67.20
2019-04-27T11:07:32.890Z,67.60
2019-04-27T11:10:02.631Z,68.60
2019-04-27T11:12:32.066Z,67.80
2019-04-27T11:15:02.113Z,67.40
2019-04-27T11:17:31.517Z,67.50
2019-04-27T11:20:02.735Z,67.60
2019-04-27T11:22:32.289Z,68.20
2019-04-27T11:25:01.997Z,67.00
2019-04-27T11:27:31.433Z,65.80
2019-04-27T11:30:00.859Z,64.50
2019-04-27T11:32:30.612Z,61.30
2019-04-27T11:35:10.810Z,59.20
2019-04-27T11:37:40.326Z,59.40
2019-04-27T11:40:11.255Z,57.70
2019-04-27T11:42:40.966Z,57.80
2019-04-27T11:45:10.795Z,57.40
2019-04-27T11:47:40.239Z,58.70
2019-04-27T11:50:10.001Z,57.80
2019-04-27T11:52:39.440Z,57.10
2019-04-27T11:55:09.725Z,56.90
2019-04-27T11:57:39.930Z,56.90
2019-04-27T12:00:12.186Z,57.80
2019-04-27T12:02:41.871Z,56.90
2019-04-27T12:05:11.385Z,57.20
2019-04-27T12:07:40.898Z,58.70
2019-04-27T12:10:10.465Z,59.10
2019-04-27T12:12:39.907Z,58.70
2019-04-27T12:15:09.930Z,59.20
2019-04-27T12:17:39.353Z,58.20
2019-04-27T12:20:08.979Z,58.80
2019-04-27T12:22:38.415Z,58.90
2019-04-27T12:25:08.619Z,58.90
2019-04-27T12:28:02.948Z,59.40
2019-04-27T12:30:37.087Z,58.80
2019-04-27T12:33:06.871Z,59.20
2019-04-27T12:35:36.863Z,58.60
2019-04-27T12:38:06.317Z,58.80
2019-04-27T12:40:36.638Z,59.80
2019-04-27T12:43:06.481Z,59.30
2019-04-27T12:45:36.984Z,61.20
2019-04-27T12:48:06.947Z,62.50
2019-04-27T12:50:36.368Z,64.00
2019-04-27T12:53:07.960Z,65.90
2019-04-27T12:55:51.931Z,64.00
2019-04-27T12:58:58.268Z,64.70
2019-04-27T13:01:28.239Z,62.00
2019-04-27T13:03:59.291Z,63.10
2019-04-27T13:06:28.759Z,61.80
2019-04-27T13:08:58.204Z,60.10
2019-04-27T13:11:28.188Z,60.40
2019-04-27T13:13:57.786Z,57.60
2019-04-27T13:16:30.328Z,58.70
2019-04-27T13:18:59.125Z,56.40
2019-04-27T13:21:28.527Z,55.00
2019-04-27T13:24:04.251Z,54.50
2019-04-27T13:26:29.013Z,54.30
2019-04-27T13:28:58.467Z,52.80
2019-04-27T13:31:28.158Z,52.80
2019-04-27T13:33:57.854Z,53.10
2019-04-27T13:36:27.538Z,53.80
2019-04-27T13:38:56.970Z,54.40
2019-04-27T13:41:32.590Z,54.30
2019-04-27T13:43:57.759Z,55.70
2019-04-27T13:46:46.012Z,55.60
2019-04-27T13:49:32.346Z,56.10
2019-04-27T13:52:06.614Z,56.40
2019-04-27T13:54:39.810Z,56.20
2019-04-27T13:57:09.232Z,56.40
2019-04-27T13:59:38.939Z,56.30
2019-04-27T14:02:08.654Z,55.00
2019-04-27T14:04:38.059Z,54.40
2019-04-27T14:07:09.075Z,54.50
2019-04-27T14:09:39.319Z,54.50
2019-04-27T14:12:18.803Z,54.60
2019-04-27T14:14:50.184Z,54.50
2019-04-27T14:17:19.622Z,55.70
2019-04-27T14:19:48.996Z,55.40
2019-04-27T14:22:18.401Z,56.50
2019-04-27T14:24:48.743Z,56.10
2019-04-27T14:27:19.830Z,55.60
2019-04-27T14:29:49.260Z,55.90
2019-04-27T14:32:18.870Z,57.10
2019-04-27T14:34:50.279Z,57.50
2019-04-27T14:37:19.394Z,58.40
2019-04-27T14:39:49.104Z,70.90
2019-04-27T14:42:19.137Z,80.10
2019-04-27T14:44:49.076Z,89.80
2019-04-27T14:47:18.867Z,97.30
2019-04-27T14:49:49.129Z,99.90
2019-04-27T14:52:19.033Z,99.90
2019-04-27T14:54:50.830Z,99.90
2019-04-27T14:57:20.400Z,99.90
2019-04-27T14:59:50.251Z,99.90
2019-04-27T15:02:19.669Z,99.90
2019-04-27T15:04:49.404Z,99.60
2019-04-27T15:07:18.822Z,99.70
2019-04-27T15:09:49.529Z,95.90
2019-04-27T15:12:24.530Z,97.30
2019-04-27T15:14:53.334Z,95.60
2019-04-27T15:17:26.644Z,94.10
2019-04-27T15:19:59.317Z,94.00
2019-04-27T15:22:30.825Z,93.00
2019-04-27T15:25:12.548Z,93.50
2019-04-27T15:27:37.769Z,93.10
2019-04-27T15:30:11.448Z,91.30
2019-04-27T15:33:00.402Z,90.50
2019-04-27T15:35:40.644Z,89.30
2019-04-27T15:38:13.994Z,89.70
2019-04-27T15:41:02.511Z,91.20
2019-04-27T15:43:34.306Z,91.10
2019-04-27T15:46:03.752Z,90.90
2019-04-27T15:48:34.130Z,93.40
2019-04-27T15:51:09.553Z,93.30
2019-04-27T15:53:34.978Z,90.50
2019-04-27T15:56:04.427Z,85.40
2019-04-27T15:58:34.210Z,84.40
2019-04-27T16:01:09.068Z,83.90
2019-04-27T16:03:38.856Z,81.70
2019-04-27T16:06:11.798Z,74.10
2019-04-27T16:08:45.136Z,73.50
2019-04-27T16:11:16.660Z,72.90
2019-04-27T16:13:42.125Z,72.10
2019-04-27T16:16:11.544Z,69.60
2019-04-27T16:18:40.973Z,67.80
2019-04-27T16:21:11.003Z,69.30
2019-04-27T16:23:43.184Z,68.70
2019-04-27T16:26:14.929Z,68.20
2019-04-27T16:28:43.122Z,66.60
2019-04-27T16:31:14.248Z,60.70
2019-04-27T16:33:43.922Z,64.10
2019-04-27T16:36:13.323Z,62.30
2019-04-27T16:38:52.556Z,64.30
2019-04-27T16:41:21.994Z,63.70
2019-04-27T16:43:51.472Z,62.90
2019-04-27T16:46:21.361Z,65.70
2019-04-27T16:48:50.973Z,67.00
2019-04-27T16:51:20.707Z,65.80
2019-04-27T16:53:50.451Z,66.70
2019-04-27T16:56:20.828Z,64.30
2019-04-27T16:58:56.766Z,65.00
2019-04-27T17:01:24.373Z,63.20
2019-04-27T17:03:54.264Z,63.80
2019-04-27T17:06:23.855Z,66.40
2019-04-27T17:08:57.452Z,65.90
2019-04-27T17:11:24.590Z,64.50
2019-04-27T17:14:22.239Z,64.60
2019-04-27T17:17:03.653Z,64.30
2019-04-27T17:19:41.257Z,62.50
2019-04-27T17:22:10.374Z,63.50
2019-04-27T17:24:44.034Z,61.90
2019-04-27T17:27:11.692Z,61.40
2019-04-27T17:29:42.212Z,60.90
2019-04-27T17:32:25.508Z,61.00
2019-04-27T17:35:02.206Z,61.00
2019-04-27T17:37:29.924Z,63.00
2019-04-27T17:40:00.825Z,63.60
2019-04-27T17:42:30.848Z,65.70
2019-04-27T17:45:00.662Z,70.00
2019-04-27T17:47:30.230Z,76.00
2019-04-27T17:49:59.641Z,83.70
2019-04-27T17:52:29.032Z,85.20
2019-04-27T17:55:00.652Z,87.80
2019-04-27T17:57:30.485Z,89.50
2019-04-27T18:00:03.082Z,87.30
2019-04-27T18:02:33.833Z,86.60
2019-04-27T18:05:02.279Z,88.00
2019-04-27T18:07:34.965Z,87.90
2019-04-27T18:10:02.780Z,88.30
2019-04-27T18:12:32.162Z,86.80
2019-04-27T18:15:01.568Z,83.70
2019-04-27T18:17:32.152Z,83.50
2019-04-27T18:20:04.365Z,81.80
2019-04-27T18:22:39.661Z,85.70
2019-04-27T18:25:10.098Z,86.00
2019-04-27T18:27:50.373Z,85.20
2019-04-27T18:30:24.489Z,85.80
2019-04-27T18:32:59.383Z,86.00
2019-04-27T18:35:26.517Z,85.10
2019-04-27T18:38:00.850Z,86.80
2019-04-27T18:40:32.060Z,85.10
2019-04-27T18:43:02.064Z,84.50
2019-04-27T18:45:30.069Z,85.70
2019-04-27T18:48:06.609Z,84.40
2019-04-27T18:50:57.228Z,83.80
2019-04-27T18:53:28.822Z,84.90
2019-04-27T18:56:04.541Z,85.90
2019-04-27T18:58:29.686Z,86.20
2019-04-27T19:00:59.128Z,86.60
2019-04-27T19:03:31.113Z,88.90
2019-04-27T19:05:59.944Z,88.80
2019-04-27T19:08:29.330Z,88.70
2019-04-27T19:11:00.338Z,89.80
2019-04-27T19:13:30.118Z,91.30
2019-04-27T19:15:59.924Z,92.80
2019-04-27T19:18:29.580Z,93.90
2019-04-27T19:20:59.258Z,94.80
2019-04-27T19:23:29.370Z,95.80
2019-04-27T19:26:08.799Z,97.80
2019-04-27T19:28:59.406Z,97.80
2019-04-27T19:31:32.664Z,98.10
2019-04-27T19:34:02.050Z,97.40
2019-04-27T19:36:31.504Z,97.80
2019-04-27T19:39:00.922Z,98.00
2019-04-27T19:41:30.659Z,96.90
2019-04-27T19:44:00.324Z,97.00
2019-04-27T19:46:30.551Z,98.50
2019-04-27T19:49:00.329Z,97.70
2019-04-27T19:51:30.279Z,97.50
2019-04-27T19:53:59.687Z,96.70
2019-04-27T19:56:29.887Z,97.60
2019-04-27T19:59:01.763Z,97.30
2019-04-27T20:01:40.056Z,98.40
2019-04-27T20:04:16.409Z,98.00
2019-04-27T20:06:45.837Z,98.80
2019-04-27T20:09:20.201Z,98.30
2019-04-27T20:11:49.641Z,99.20
2019-04-27T20:14:20.868Z,98.60
2019-04-27T20:16:51.968Z,99.50
2019-04-27T20:19:21.624Z,99.90
2019-04-27T20:21:51.209Z,99.90
2019-04-27T20:24:22.732Z,99.90
2019-04-27T20:26:51.953Z,99.80
2019-04-27T20:29:21.835Z,99.90
2019-04-27T20:31:51.356Z,99.90
2019-04-27T20:34:22.832Z,99.90
2019-04-27T20:36:52.873Z,99.90
2019-04-27T20:39:22.659Z,99.90
2019-04-27T20:41:52.088Z,99.90
2019-04-27T20:44:21.618Z,99.90
2019-04-27T20:46:51.430Z,99.90
2019-04-27T20:49:21.463Z,99.90
2019-04-27T20:51:57.438Z,99.90
2019-04-27T20:54:27.101Z,99.90
2019-04-27T20:56:57.306Z,99.90
2019-04-27T20:59:26.741Z,99.70
2019-04-27T21:01:57.729Z,99.30
2019-04-27T21:04:31.076Z,98.60
2019-04-27T21:07:02.531Z,97.30
2019-04-27T21:09:32.398Z,96.90
2019-04-27T21:12:02.654Z,98.00
2019-04-27T21:14:32.035Z,97.60
2019-04-27T21:17:01.782Z,97.70
2019-04-27T21:19:31.331Z,98.20
2019-04-27T21:22:01.306Z,97.80
2019-04-27T21:24:31.247Z,97.90
2019-04-27T21:27:00.731Z,97.20
2019-04-27T21:29:31.192Z,97.20
2019-04-27T21:32:01.127Z,97.40
2019-04-27T21:34:31.049Z,97.30
2019-04-27T21:37:01.054Z,97.20
2019-04-27T21:39:31.888Z,97.60
2019-04-27T21:42:01.626Z,97.50
2019-04-27T21:44:31.964Z,98.10
2019-04-27T21:47:01.775Z,97.50
2019-04-27T21:49:31.479Z,98.20
2019-04-27T21:52:16.627Z,97.60
2019-04-27T21:54:46.930Z,97.30
2019-04-27T21:57:16.749Z,97.20
2019-04-27T21:59:46.064Z,97.40
2019-04-27T22:02:15.814Z,96.60
2019-04-27T22:04:45.199Z,97.00
2019-04-27T22:07:14.609Z,96.80
2019-04-27T22:09:44.016Z,97.30
2019-04-27T22:12:13.893Z,97.40
2019-04-27T22:14:43.287Z,97.60
2019-04-27T22:17:12.958Z,97.30
2019-04-27T22:19:42.618Z,97.10
2019-04-27T22:22:22.009Z,96.90
2019-04-27T22:24:51.678Z,97.20
2019-04-27T22:27:21.378Z,97.10
2019-04-27T22:29:50.837Z,97.10
2019-04-27T22:32:21.763Z,96.60
2019-04-27T22:34:51.974Z,96.90
2019-04-27T22:37:21.662Z,96.90
2019-04-27T22:40:12.006Z,97.40
2019-04-27T22:43:02.986Z,97.70
2019-04-27T22:45:34.209Z,97.70
2019-04-27T22:48:03.630Z,97.80
2019-04-27T22:50:33.294Z,98.20
2019-04-27T22:53:02.981Z,97.70
2019-04-27T22:55:32.398Z,97.30
2019-04-27T22:58:08.133Z,97.40
2019-04-27T23:01:01.345Z,97.50
2019-04-27T23:03:33.378Z,97.60
2019-04-27T23:06:02.758Z,98.00
2019-04-27T23:08:32.445Z,98.60
2019-04-27T23:11:02.596Z,98.30
2019-04-27T23:13:32.084Z,98.30
2019-04-27T23:16:03.232Z,98.50
2019-04-27T23:18:32.660Z,98.50
2019-04-27T23:21:02.402Z,98.50
2019-04-27T23:23:31.818Z,99.10
2019-04-27T23:26:01.892Z,98.60
2019-04-27T23:28:31.405Z,98.40
2019-04-27T23:31:20.978Z,97.80
2019-04-27T23:33:51.820Z,98.30
2019-04-27T23:36:21.695Z,98.10
2019-04-27T23:38:51.102Z,97.90
2019-04-27T23:41:20.489Z,97.90
2019-04-27T23:43:49.902Z,97.30
2019-04-27T23:46:19.269Z,97.50
2019-04-27T23:48:51.295Z,98.30
2019-04-27T23:51:37.349Z,98.30
2019-04-27T23:54:06.767Z,97.90
2019-04-27T23:56:36.141Z,98.30
2019-04-27T23:59:05.530Z,98.30
